Time;durP1;ratioP1;P1;durP2;ratioP2;P2;SDS_P1;SDS_P2;PMS_P1;PMS_P2;Temp;Humidity;BMP_temperature;BMP_pressure;BME280_temperature;BME280_humidity;BME280_pressure;Samples;Min_cycle;Max_cycle;Signal;HPM_P1;HPM_P2
2023/01/25 00:00:00;;;;;;;40.50;21.20;;;;;;;;;;5015865;28;20209;-48
2023/01/25 00:02:30;;;;;;;41.07;21.37;;;;;;;;;;5016111;28;20205;-49
2023/01/25 00:04:58;;;;;;;39.30;20.20;;;;;;;;;;5015640;28;20233;-47
2023/01/25 00:07:25;;;;;;;47.10;22.30;;;;;;;;;;5015678;28;20635;-48
2023/01/25 00:09:52;;;;;;;45.57;21.80;;;;;;;;;;5015472;28;20205;-48
2023/01/25 00:12:19;;;;;;;42.17;22.77;;;;;;;;;;5014786;28;20208;-48
2023/01/25 00:14:46;;;;;;;43.53;21.93;;;;;;;;;;5015375;28;20657;-50
2023/01/25 00:17:13;;;;;;;45.47;22.17;;;;;;;;;;5016010;28;20260;-49
2023/01/25 00:19:40;;;;;;;40.07;21.07;;;;;;;;;;5015455;28;20209;-48
2023/01/25 00:22:07;;;;;;;36.50;19.17;;;;;;;;;;5015468;28;20622;-54
2023/01/25 00:24:34;;;;;;;40.27;21.17;;;;;;;;;;5015231;28;20205;-48
2023/01/25 00:27:01;;;;;;;39.07;20.40;;;;;;;;;;5016073;28;20228;-48
2023/01/25 00:29:31;;;;;;;37.77;18.60;;;;;;;;;;5014628;28;20210;-48
2023/01/25 00:32:02;;;;;;;38.33;19.60;;;;;;;;;;5015272;28;20201;-49
2023/01/25 00:34:46;;;;;;;37.00;19.60;;;;;;;;;;5014414;28;20212;-50
2023/01/25 00:37:22;;;;;;;40.90;19.63;;;;;;;;;;5015148;28;20627;-48
2023/01/25 00:39:51;;;;;;;37.33;19.13;;;;;;;;;;5030416;28;20193;-49
2023/01/25 00:42:18;;;;;;;37.73;19.70;;;;;;;;;;5015306;28;20229;-47
2023/01/25 00:44:47;;;;;;;38.10;19.90;;;;;;;;;;5014296;28;20489;-48
2023/01/25 00:47:15;;;;;;;39.90;20.60;;;;;;;;;;5015097;28;20634;-48
2023/01/25 00:49:44;;;;;;;40.07;19.90;;;;;;;;;;5014376;28;20201;-51
2023/01/25 00:52:12;;;;;;;38.00;20.03;;;;;;;;;;5015156;28;20213;-48
2023/01/25 00:54:40;;;;;;;41.03;20.80;;;;;;;;;;5014721;28;20210;-48
2023/01/25 00:57:08;;;;;;;40.93;20.03;;;;;;;;;;5015130;28;20536;-48
2023/01/25 00:59:35;;;;;;;39.63;20.10;;;;;;;;;;5014296;28;20201;-47
2023/01/25 01:02:03;;;;;;;46.43;21.03;;;;;;;;;;5014074;28;20201;-48
2023/01/25 01:04:30;;;;;;;42.80;21.20;;;;;;;;;;5014774;28;20206;-48
2023/01/25 01:06:57;;;;;;;40.77;20.27;;;;;;;;;;5014193;28;20225;-50
2023/01/25 01:09:25;;;;;;;40.13;20.33;;;;;;;;;;5014619;28;20214;-49
2023/01/25 01:11:52;;;;;;;45.97;21.77;;;;;;;;;;5015084;28;20209;-48
2023/01/25 01:14:21;;;;;;;42.80;20.03;;;;;;;;;;5013887;28;20648;-49
2023/01/25 01:16:49;;;;;;;44.30;21.40;;;;;;;;;;5014736;28;20676;-49
2023/01/25 01:19:18;;;;;;;41.90;21.30;;;;;;;;;;5015039;28;20232;-49
2023/01/25 01:21:45;;;;;;;42.53;22.47;;;;;;;;;;5015252;28;20206;-48
2023/01/25 01:24:12;;;;;;;48.53;23.00;;;;;;;;;;5015207;28;20201;-49
2023/01/25 01:26:39;;;;;;;45.33;22.67;;;;;;;;;;5014587;28;20229;-46
2023/01/25 01:29:06;;;;;;;47.13;23.33;;;;;;;;;;5014537;28;20201;-47
2023/01/25 01:31:35;;;;;;;50.33;24.57;;;;;;;;;;5014050;28;20229;-47
2023/01/25 01:34:12;;;;;;;51.80;25.97;;;;;;;;;;5013797;28;20217;-48
2023/01/25 01:36:39;;;;;;;59.13;25.37;;;;;;;;;;5014262;28;20220;-47
2023/01/25 01:39:06;;;;;;;59.60;25.20;;;;;;;;;;5013857;28;20209;-46
2023/01/25 01:41:34;;;;;;;50.17;23.93;;;;;;;;;;5013530;28;20257;-47
2023/01/25 01:44:02;;;;;;;58.30;24.77;;;;;;;;;;5014417;28;20669;-48
2023/01/25 01:46:37;;;;;;;54.70;25.20;;;;;;;;;;5014631;28;20233;-47
2023/01/25 01:49:14;;;;;;;57.53;25.73;;;;;;;;;;5014017;28;20201;-47
2023/01/25 01:51:47;;;;;;;60.10;28.23;;;;;;;;;;5017377;28;20220;-47
2023/01/25 01:54:19;;;;;;;58.07;25.93;;;;;;;;;;5018125;28;20193;-47
2023/01/25 01:57:02;;;;;;;63.47;28.70;;;;;;;;;;5017202;28;20244;-47
2023/01/25 01:59:38;;;;;;;59.37;27.43;;;;;;;;;;5017439;28;20205;-47
2023/01/25 02:02:05;;;;;;;57.23;25.97;;;;;;;;;;5017410;28;20200;-47
2023/01/25 02:04:33;;;;;;;62.93;27.43;;;;;;;;;;5000848;28;20275;-48
2023/01/25 02:07:10;;;;;;;62.03;26.40;;;;;;;;;;5033436;28;20632;-46
2023/01/25 02:09:38;;;;;;;54.87;25.30;;;;;;;;;;5033435;28;20209;-49
2023/01/25 02:12:06;;;;;;;58.40;25.80;;;;;;;;;;5000849;28;20209;-47
2023/01/25 02:14:33;;;;;;;52.67;25.63;;;;;;;;;;5017066;28;20206;-47
2023/01/25 02:17:02;;;;;;;54.33;25.73;;;;;;;;;;5017498;28;20267;-48
2023/01/25 02:19:44;;;;;;;53.17;26.30;;;;;;;;;;5016635;28;20720;-49
2023/01/25 02:22:15;;;;;;;55.20;25.03;;;;;;;;;;5000804;28;20233;-50
2023/01/25 02:24:49;;;;;;;49.37;23.03;;;;;;;;;;5032804;28;20685;-49
2023/01/25 02:27:18;;;;;;;46.20;21.47;;;;;;;;;;5033157;28;20276;-47
2023/01/25 02:29:45;;;;;;;43.47;20.83;;;;;;;;;;5017329;28;20236;-47
2023/01/25 02:32:14;;;;;;;44.17;21.53;;;;;;;;;;5000713;28;20587;-47
2023/01/25 02:34:41;;;;;;;34.53;17.07;;;;;;;;;;5017269;28;20220;-47
2023/01/25 02:37:13;;;;;;;17.57;9.00;;;;;;;;;;5016525;28;20209;-46
2023/01/25 02:39:41;;;;;;;12.67;6.47;;;;;;;;;;5016491;28;20197;-47
2023/01/25 02:42:08;;;;;;;9.37;5.40;;;;;;;;;;5016899;28;20241;-49
2023/01/25 02:44:39;;;;;;;12.67;7.10;;;;;;;;;;5016297;28;20712;-48
2023/01/25 02:47:06;;;;;;;9.50;6.17;;;;;;;;;;5016398;28;20225;-49
2023/01/25 02:49:35;;;;;;;17.47;9.17;;;;;;;;;;5017208;28;20244;-49
2023/01/25 02:52:03;;;;;;;21.13;10.97;;;;;;;;;;5015892;28;20202;-48
2023/01/25 02:54:30;;;;;;;21.40;11.90;;;;;;;;;;5016215;28;20201;-47
2023/01/25 02:56:58;;;;;;;24.23;12.10;;;;;;;;;;5016139;28;20206;-47
2023/01/25 02:59:30;;;;;;;27.43;13.43;;;;;;;;;;5015993;28;20264;-48
2023/01/25 03:01:58;;;;;;;13.70;8.73;;;;;;;;;;5015414;28;20241;-47
2023/01/25 03:04:27;;;;;;;11.23;6.77;;;;;;;;;;5015933;28;20209;-48
2023/01/25 03:06:54;;;;;;;16.60;8.80;;;;;;;;;;5015830;28;20233;-46
2023/01/25 03:09:22;;;;;;;18.37;10.33;;;;;;;;;;5015925;28;20677;-47
2023/01/25 03:11:49;;;;;;;17.40;9.07;;;;;;;;;;5015957;28;20236;-47
2023/01/25 03:14:19;;;;;;;15.50;8.07;;;;;;;;;;5015699;28;20550;-49
2023/01/25 03:16:46;;;;;;;16.90;8.10;;;;;;;;;;5015831;28;20267;-48
2023/01/25 03:19:15;;;;;;;13.43;7.27;;;;;;;;;;5015693;28;20201;-47
2023/01/25 03:21:42;;;;;;;13.90;7.87;;;;;;;;;;5015655;28;20197;-47
2023/01/25 03:24:10;;;;;;;14.77;7.83;;;;;;;;;;5015448;28;20281;-47
2023/01/25 03:29:37;;;;;;;15.87;8.97;;;;;;;;;;5015707;28;20213;-47
2023/01/25 03:32:10;;;;;;;15.80;8.53;;;;;;;;;;5015579;28;20332;-48
2023/01/25 03:34:38;;;;;;;14.50;8.33;;;;;;;;;;5015538;28;20205;-47
2023/01/25 03:37:05;;;;;;;16.57;8.77;;;;;;;;;;5015468;28;20585;-48
2023/01/25 03:39:34;;;;;;;16.47;9.70;;;;;;;;;;5015520;28;20208;-49
2023/01/25 03:42:02;;;;;;;19.77;9.70;;;;;;;;;;5015008;28;20237;-48
2023/01/25 03:44:30;;;;;;;17.87;10.80;;;;;;;;;;5015280;28;20205;-47
2023/01/25 03:46:58;;;;;;;19.50;10.80;;;;;;;;;;5015199;28;20528;-48
2023/01/25 03:49:26;;;;;;;20.70;9.67;;;;;;;;;;5015050;28;20642;-47
2023/01/25 03:51:56;;;;;;;19.50;10.57;;;;;;;;;;5015218;28;20228;-47
2023/01/25 03:54:32;;;;;;;19.70;9.93;;;;;;;;;;4999841;28;20220;-47
2023/01/25 03:57:01;;;;;;;19.20;10.30;;;;;;;;;;5015047;28;20520;-48
2023/01/25 03:59:31;;;;;;;17.90;10.70;;;;;;;;;;5015715;28;20650;-47
2023/01/25 04:01:58;;;;;;;19.20;10.30;;;;;;;;;;5015588;28;20221;-47
2023/01/25 04:04:26;;;;;;;19.00;10.93;;;;;;;;;;5014979;28;20206;-47
2023/01/25 04:06:53;;;;;;;18.27;10.30;;;;;;;;;;5015158;28;20295;-49
2023/01/25 04:09:22;;;;;;;15.33;9.23;;;;;;;;;;5014862;28;20206;-48
2023/01/25 04:11:52;;;;;;;17.53;10.23;;;;;;;;;;5014528;28;20206;-47
2023/01/25 04:14:20;;;;;;;15.37;8.90;;;;;;;;;;5014036;28;20536;-48
2023/01/25 04:17:09;;;;;;;13.47;7.87;;;;;;;;;;5014837;28;20189;-47
2023/01/25 04:19:57;;;;;;;17.63;8.87;;;;;;;;;;5015054;28;20215;-46
2023/01/25 04:22:30;;;;;;;14.63;8.60;;;;;;;;;;5014529;28;20218;-46
2023/01/25 04:24:57;;;;;;;14.63;8.27;;;;;;;;;;5014457;28;20205;-47
2023/01/25 04:27:24;;;;;;;15.43;8.30;;;;;;;;;;5014423;28;20655;-48
2023/01/25 04:29:58;;;;;;;13.33;8.40;;;;;;;;;;5014744;28;20209;-47
2023/01/25 04:32:26;;;;;;;14.60;8.27;;;;;;;;;;5014482;28;20232;-47
2023/01/25 04:34:55;;;;;;;14.23;8.50;;;;;;;;;;5014157;28;20703;-48
2023/01/25 04:37:25;;;;;;;11.93;7.70;;;;;;;;;;5014196;28;20284;-47
2023/01/25 04:39:57;;;;;;;15.73;8.77;;;;;;;;;;5014935;28;20202;-47
2023/01/25 04:42:25;;;;;;;14.50;8.13;;;;;;;;;;5012853;28;20243;-48
2023/01/25 04:44:55;;;;;;;16.80;8.63;;;;;;;;;;5013532;28;20560;-49
2023/01/25 04:47:23;;;;;;;15.93;8.13;;;;;;;;;;5030425;28;20244;-47
2023/01/25 04:49:50;;;;;;;15.73;9.03;;;;;;;;;;5030400;28;20263;-47
2023/01/25 04:52:21;;;;;;;15.90;8.60;;;;;;;;;;5014241;28;20288;-48
2023/01/25 04:54:48;;;;;;;15.80;9.20;;;;;;;;;;5015010;28;20220;-51
2023/01/25 04:57:16;;;;;;;20.30;10.27;;;;;;;;;;5014288;28;20212;-49
2023/01/25 04:59:48;;;;;;;15.23;9.17;;;;;;;;;;5030326;28;20212;-48
2023/01/25 05:02:16;;;;;;;17.63;9.80;;;;;;;;;;5014331;28;20240;-48
2023/01/25 05:04:44;;;;;;;19.20;10.50;;;;;;;;;;5014050;28;20205;-47
2023/01/25 05:07:11;;;;;;;20.87;10.87;;;;;;;;;;5015050;28;20316;-49
2023/01/25 05:09:39;;;;;;;20.70;10.20;;;;;;;;;;5006631;28;20233;-47
2023/01/25 05:12:10;;;;;;;20.03;11.07;;;;;;;;;;5009935;28;20234;-47
2023/01/25 05:14:53;;;;;;;21.53;11.27;;;;;;;;;;5008329;28;20253;-47
2023/01/25 05:17:21;;;;;;;21.77;11.63;;;;;;;;;;5008290;28;20312;-47
2023/01/25 05:19:49;;;;;;;20.73;11.07;;;;;;;;;;5019312;28;20233;-46
2023/01/25 05:22:22;;;;;;;18.53;11.03;;;;;;;;;;5002357;28;20224;-47
2023/01/25 05:24:52;;;;;;;23.00;11.27;;;;;;;;;;5012331;28;21059;-47
2023/01/25 05:27:20;;;;;;;21.47;11.17;;;;;;;;;;5016762;28;20765;-49
2023/01/25 05:29:54;;;;;;;20.90;11.93;;;;;;;;;;5017810;28;20222;-50
2023/01/25 05:32:27;;;;;;;22.60;12.63;;;;;;;;;;5016717;28;20277;-48
2023/01/25 05:34:55;;;;;;;26.50;13.50;;;;;;;;;;5017385;28;20243;-48
2023/01/25 05:37:23;;;;;;;24.13;12.77;;;;;;;;;;5017663;28;20233;-48
2023/01/25 05:39:57;;;;;;;26.30;12.93;;;;;;;;;;5016270;28;20240;-47
2023/01/25 05:42:24;;;;;;;24.00;12.30;;;;;;;;;;5016399;28;20312;-48
2023/01/25 05:44:53;;;;;;;27.10;13.67;;;;;;;;;;5016642;28;20221;-47
2023/01/25 05:47:20;;;;;;;23.60;11.97;;;;;;;;;;5016528;28;20248;-47
2023/01/25 05:49:47;;;;;;;24.13;12.03;;;;;;;;;;5014969;28;20229;-48
2023/01/25 05:52:21;;;;;;;22.63;12.53;;;;;;;;;;5015646;28;20229;-49
2023/01/25 05:54:48;;;;;;;23.60;13.27;;;;;;;;;;5015484;28;20233;-47
2023/01/25 05:57:16;;;;;;;25.37;12.83;;;;;;;;;;5015966;28;20569;-47
2023/01/25 05:59:44;;;;;;;22.33;12.57;;;;;;;;;;5015854;28;20233;-47
2023/01/25 06:02:14;;;;;;;26.07;13.97;;;;;;;;;;5015906;28;20319;-47
2023/01/25 06:04:43;;;;;;;24.50;12.73;;;;;;;;;;5015806;28;20221;-48
2023/01/25 06:07:11;;;;;;;30.37;14.03;;;;;;;;;;5015989;28;20260;-47
2023/01/25 06:09:39;;;;;;;24.73;13.80;;;;;;;;;;5015567;28;20588;-50
2023/01/25 06:12:06;;;;;;;27.80;14.17;;;;;;;;;;5016007;28;20229;-47
2023/01/25 06:14:33;;;;;;;24.50;13.40;;;;;;;;;;5017455;28;20205;-48
2023/01/25 06:17:02;;;;;;;25.57;13.70;;;;;;;;;;5016735;28;20201;-47
2023/01/25 06:19:49;;;;;;;22.90;13.13;;;;;;;;;;5017268;28;20209;-47
2023/01/25 06:22:28;;;;;;;31.13;13.93;;;;;;;;;;5017359;28;20294;-47
2023/01/25 06:24:56;;;;;;;26.73;13.57;;;;;;;;;;5017139;28;20209;-48
2023/01/25 06:27:23;;;;;;;24.00;13.90;;;;;;;;;;5017116;28;20233;-47
2023/01/25 06:29:50;;;;;;;21.07;12.37;;;;;;;;;;5017240;28;20205;-47
2023/01/25 06:32:17;;;;;;;35.67;19.67;;;;;;;;;;5017194;28;20201;-49
2023/01/25 06:34:45;;;;;;;26.80;14.47;;;;;;;;;;5016985;28;20646;-47
2023/01/25 06:37:20;;;;;;;48.87;24.50;;;;;;;;;;5016085;28;20216;-49
2023/01/25 06:39:47;;;;;;;35.23;16.73;;;;;;;;;;5017177;28;20212;-48
2023/01/25 06:42:14;;;;;;;29.43;13.70;;;;;;;;;;5016757;28;20295;-48
2023/01/25 06:44:42;;;;;;;34.53;15.43;;;;;;;;;;5016103;28;20263;-49
2023/01/25 06:47:09;;;;;;;34.60;15.53;;;;;;;;;;5017026;28;20221;-47
2023/01/25 06:49:36;;;;;;;39.10;18.17;;;;;;;;;;5016714;28;20205;-50
2023/01/25 06:52:03;;;;;;;36.73;18.07;;;;;;;;;;5016847;28;20205;-48
2023/01/25 06:54:30;;;;;;;31.70;15.90;;;;;;;;;;5016875;28;20684;-48
2023/01/25 06:56:57;;;;;;;69.57;26.00;;;;;;;;;;5016877;28;20646;-48
2023/01/25 06:59:24;;;;;;;38.07;17.97;;;;;;;;;;5016855;28;20205;-47
2023/01/25 07:01:51;;;;;;;27.27;14.63;;;;;;;;;;5016901;28;20634;-48
2023/01/25 07:04:19;;;;;;;43.87;23.07;;;;;;;;;;5016707;28;20209;-47
2023/01/25 07:06:46;;;;;;;41.50;21.77;;;;;;;;;;5016860;28;20237;-47
2023/01/25 07:09:13;;;;;;;38.60;19.93;;;;;;;;;;5016842;28;20202;-48
2023/01/25 07:11:40;;;;;;;33.30;17.20;;;;;;;;;;5032031;28;20538;-47
2023/01/25 07:14:08;;;;;;;36.97;17.27;;;;;;;;;;5016647;28;20205;-47
2023/01/25 07:16:38;;;;;;;34.47;16.60;;;;;;;;;;5016714;28;20292;-48
2023/01/25 07:19:06;;;;;;;32.90;16.03;;;;;;;;;;5016435;28;20201;-48
2023/01/25 07:21:33;;;;;;;32.70;15.80;;;;;;;;;;5016954;28;20197;-47
2023/01/25 07:24:02;;;;;;;36.77;16.13;;;;;;;;;;5016663;28;20201;-49
2023/01/25 07:26:30;;;;;;;44.03;18.57;;;;;;;;;;5031366;28;20198;-48
2023/01/25 07:28:58;;;;;;;38.30;18.33;;;;;;;;;;5016599;28;20232;-47
2023/01/25 07:31:25;;;;;;;35.50;19.27;;;;;;;;;;5015572;28;20292;-48
2023/01/25 07:33:54;;;;;;;35.57;19.27;;;;;;;;;;5016406;28;20221;-47
2023/01/25 07:36:22;;;;;;;40.27;19.77;;;;;;;;;;5016042;28;20213;-47
2023/01/25 07:38:53;;;;;;;38.57;18.93;;;;;;;;;;5016043;28;20646;-47
2023/01/25 07:41:21;;;;;;;41.63;19.67;;;;;;;;;;5015092;28;20633;-47
2023/01/25 07:43:51;;;;;;;37.70;19.07;;;;;;;;;;5014530;28;20201;-47
2023/01/25 07:46:40;;;;;;;38.37;18.97;;;;;;;;;;5014927;28;20225;-46
2023/01/25 07:49:08;;;;;;;39.33;19.20;;;;;;;;;;5014447;28;20627;-48
2023/01/25 07:51:35;;;;;;;44.37;22.10;;;;;;;;;;5014086;28;20201;-51
2023/01/25 07:54:03;;;;;;;44.27;21.67;;;;;;;;;;5015436;28;20201;-48
2023/01/25 07:56:36;;;;;;;35.27;17.60;;;;;;;;;;5015735;28;20212;-48
2023/01/25 07:59:07;;;;;;;34.67;17.77;;;;;;;;;;5015520;28;20190;-50
2023/01/25 08:01:35;;;;;;;31.83;18.80;;;;;;;;;;5015462;28;20200;-50
2023/01/25 08:04:04;;;;;;;30.23;16.83;;;;;;;;;;5015239;28;20201;-49
2023/01/25 08:06:34;;;;;;;36.07;17.90;;;;;;;;;;5015573;28;20200;-47
2023/01/25 08:09:05;;;;;;;37.77;18.27;;;;;;;;;;5014511;28;20181;-47
2023/01/25 08:11:32;;;;;;;45.27;23.60;;;;;;;;;;5015684;28;20202;-50
2023/01/25 08:14:01;;;;;;;38.77;20.20;;;;;;;;;;5015374;28;20193;-49
2023/01/25 08:16:30;;;;;;;43.83;25.23;;;;;;;;;;5015053;28;20202;-49
2023/01/25 08:18:59;;;;;;;36.57;17.83;;;;;;;;;;5015206;28;20193;-49
2023/01/25 08:21:29;;;;;;;37.70;17.33;;;;;;;;;;5015353;28;20209;-48
2023/01/25 08:23:58;;;;;;;30.17;16.83;;;;;;;;;;5015221;28;20251;-47
2023/01/25 08:26:26;;;;;;;35.00;17.07;;;;;;;;;;5014901;28;20209;-47
2023/01/25 08:28:54;;;;;;;38.80;19.03;;;;;;;;;;5014714;28;20287;-47
2023/01/25 08:31:24;;;;;;;37.10;18.60;;;;;;;;;;5015240;28;20209;-48
2023/01/25 08:33:52;;;;;;;38.43;18.47;;;;;;;;;;5014806;28;20201;-47
2023/01/25 08:36:20;;;;;;;38.00;18.67;;;;;;;;;;5014880;28;20201;-47
2023/01/25 08:38:47;;;;;;;36.47;17.50;;;;;;;;;;5015373;28;20220;-47
2023/01/25 08:41:16;;;;;;;35.63;18.67;;;;;;;;;;5014882;28;20303;-48
2023/01/25 08:43:44;;;;;;;36.20;19.03;;;;;;;;;;5014783;28;20208;-47
2023/01/25 08:46:13;;;;;;;34.77;18.57;;;;;;;;;;5014752;28;20205;-50
2023/01/25 08:48:40;;;;;;;31.87;18.10;;;;;;;;;;5012954;28;20295;-52
2023/01/25 08:51:09;;;;;;;37.27;19.67;;;;;;;;;;5013492;28;20197;-49
2023/01/25 08:53:36;;;;;;;33.23;18.37;;;;;;;;;;5014130;28;20224;-50
2023/01/25 08:56:14;;;;;;;34.33;17.70;;;;;;;;;;5014066;28;20240;-48
2023/01/25 08:58:44;;;;;;;32.73;18.07;;;;;;;;;;5014907;28;20193;-49
2023/01/25 09:01:14;;;;;;;33.40;19.73;;;;;;;;;;5016936;28;20216;-49
2023/01/25 09:03:43;;;;;;;35.40;18.67;;;;;;;;;;5018859;28;20205;-50
2023/01/25 09:06:11;;;;;;;32.83;18.50;;;;;;;;;;5018617;28;20205;-50
2023/01/25 09:08:38;;;;;;;34.70;19.70;;;;;;;;;;5018346;28;20232;-52
2023/01/25 09:11:07;;;;;;;32.90;18.57;;;;;;;;;;5018841;28;20202;-47
2023/01/25 09:13:35;;;;;;;37.03;20.23;;;;;;;;;;5018908;28;20267;-49
2023/01/25 09:16:04;;;;;;;31.47;18.07;;;;;;;;;;5018237;28;20586;-48
2023/01/25 09:18:34;;;;;;;35.47;20.13;;;;;;;;;;5018644;28;20209;-47
2023/01/25 09:21:08;;;;;;;34.57;18.90;;;;;;;;;;5017578;28;20205;-48
2023/01/25 09:23:36;;;;;;;35.30;18.17;;;;;;;;;;5018663;28;20190;-49
2023/01/25 09:26:17;;;;;;;34.83;17.83;;;;;;;;;;5018175;28;20569;-47
2023/01/25 09:28:50;;;;;;;37.67;18.77;;;;;;;;;;5017934;28;20225;-50
2023/01/25 09:31:18;;;;;;;35.43;18.17;;;;;;;;;;4998493;28;20349;-47
2023/01/25 09:34:13;;;;;;;35.53;19.90;;;;;;;;;;5026784;28;20608;-50
2023/01/25 09:36:40;;;;;;;32.93;19.37;;;;;;;;;;5008050;28;20628;-51
2023/01/25 09:39:10;;;;;;;40.67;19.90;;;;;;;;;;5005032;28;20194;-49
2023/01/25 09:41:57;;;;;;;35.00;19.20;;;;;;;;;;5007051;28;20221;-48
2023/01/25 09:44:38;;;;;;;35.17;18.83;;;;;;;;;;5023545;28;20512;-49
2023/01/25 09:47:43;;;;;;;32.80;17.87;;;;;;;;;;5009515;28;20276;-49
2023/01/25 09:50:48;;;;;;;32.63;18.73;;;;;;;;;;5008846;28;20194;-50
2023/01/25 09:53:33;;;;;;;39.77;19.27;;;;;;;;;;5002665;28;20235;-48
2023/01/25 09:56:11;;;;;;;34.40;18.83;;;;;;;;;;5007815;28;20228;-49
2023/01/25 09:58:46;;;;;;;32.73;18.57;;;;;;;;;;5007661;28;20210;-52
2023/01/25 10:01:33;;;;;;;34.30;17.97;;;;;;;;;;5005515;28;20189;-48
2023/01/25 10:04:12;;;;;;;32.80;18.80;;;;;;;;;;5008398;28;20189;-49
2023/01/25 10:06:41;;;;;;;35.57;19.17;;;;;;;;;;5004839;28;20189;-52
2023/01/25 10:09:57;;;;;;;32.67;18.57;;;;;;;;;;5004586;28;20250;-50
2023/01/25 10:12:26;;;;;;;37.10;19.40;;;;;;;;;;5008536;28;20197;-49
2023/01/25 10:14:53;;;;;;;33.27;19.37;;;;;;;;;;5006395;28;20517;-51
2023/01/25 10:17:26;;;;;;;35.23;19.47;;;;;;;;;;5005494;28;20210;-51
2023/01/25 10:19:57;;;;;;;37.33;19.53;;;;;;;;;;5006491;28;20570;-50
2023/01/25 10:22:36;;;;;;;38.10;18.73;;;;;;;;;;5020305;28;20190;-49
2023/01/25 10:25:06;;;;;;;35.30;19.10;;;;;;;;;;5024438;28;20194;-48
2023/01/25 10:27:43;;;;;;;36.03;19.23;;;;;;;;;;5007109;28;20241;-49
2023/01/25 10:30:21;;;;;;;36.27;18.90;;;;;;;;;;5007188;28;20205;-49
2023/01/25 10:32:51;;;;;;;35.57;18.87;;;;;;;;;;5007958;28;20194;-51
2023/01/25 10:35:27;;;;;;;36.90;18.67;;;;;;;;;;5020079;28;20273;-50
2023/01/25 10:38:09;;;;;;;37.93;20.17;;;;;;;;;;5005633;28;20193;-49
2023/01/25 10:40:50;;;;;;;37.77;19.23;;;;;;;;;;5004763;28;20190;-54
2023/01/25 10:43:19;;;;;;;35.17;19.67;;;;;;;;;;5017161;28;20490;-50
2023/01/25 10:45:48;;;;;;;40.00;21.30;;;;;;;;;;5006676;28;20198;-50
2023/01/25 10:48:42;;;;;;;38.83;21.13;;;;;;;;;;5002458;28;20222;-49
2023/01/25 11:02:53;;;;;;;36.20;18.13;;;;;;;;;;3430279;23;20225;-58
2023/01/25 11:05:32;;;;;;;32.23;18.67;;;;;;;;;;4996181;28;20209;-58
2023/01/25 11:08:15;;;;;;;38.47;20.20;;;;;;;;;;4978220;28;20226;-58
2023/01/25 11:10:43;;;;;;;40.00;20.07;;;;;;;;;;4984763;28;20198;-59
2023/01/25 11:13:13;;;;;;;37.13;19.77;;;;;;;;;;4996419;28;20210;-59
2023/01/25 11:15:44;;;;;;;42.00;22.70;;;;;;;;;;4996831;28;20623;-58
2023/01/25 11:18:24;;;;;;;37.53;21.03;;;;;;;;;;4996965;28;20217;-58
2023/01/25 11:21:13;;;;;;;40.70;22.03;;;;;;;;;;4997080;28;20206;-59
2023/01/25 11:23:40;;;;;;;38.20;21.27;;;;;;;;;;4996820;28;20206;-59
2023/01/25 11:26:16;;;;;;;43.33;22.70;;;;;;;;;;4996637;28;20643;-58
2023/01/25 11:28:45;;;;;;;41.50;21.23;;;;;;;;;;4996665;28;20253;-59
2023/01/25 11:31:22;;;;;;;43.60;23.03;;;;;;;;;;5007023;28;20575;-58
2023/01/25 11:33:49;;;;;;;42.80;22.97;;;;;;;;;;5016517;28;20212;-58
2023/01/25 11:36:21;;;;;;;40.03;21.97;;;;;;;;;;5031434;28;20581;-58
2023/01/25 11:39:13;;;;;;;40.27;21.30;;;;;;;;;;5016009;28;20205;-59
2023/01/25 11:41:58;;;;;;;48.40;22.87;;;;;;;;;;5016436;28;20205;-59
2023/01/25 11:44:48;;;;;;;52.43;27.03;;;;;;;;;;5016220;28;20232;-59
2023/01/25 11:47:53;;;;;;;40.33;20.90;;;;;;;;;;5001027;28;20638;-59
2023/01/25 11:50:29;;;;;;;49.50;24.07;;;;;;;;;;4996356;28;20288;-58
2023/01/25 11:53:15;;;;;;;44.97;23.37;;;;;;;;;;4996307;28;20642;-58
2023/01/25 11:55:48;;;;;;;45.80;23.77;;;;;;;;;;4996202;28;20206;-59
2023/01/25 11:58:18;;;;;;;51.47;25.53;;;;;;;;;;4996254;28;20229;-58
2023/01/25 12:00:58;;;;;;;51.83;25.33;;;;;;;;;;4996738;28;20206;-58
2023/01/25 12:03:49;;;;;;;48.90;24.57;;;;;;;;;;4995959;28;20682;-57
2023/01/25 12:06:37;;;;;;;80.87;33.63;;;;;;;;;;4996172;28;20544;-58
2023/01/25 12:09:25;;;;;;;61.33;27.50;;;;;;;;;;4996285;28;20210;-59
2023/01/25 12:12:05;;;;;;;61.63;27.20;;;;;;;;;;5011383;28;20189;-57
2023/01/25 12:14:58;;;;;;;68.53;28.20;;;;;;;;;;4993726;28;20199;-58
2023/01/25 12:17:31;;;;;;;93.73;35.20;;;;;;;;;;4994783;28;20197;-55
2023/01/25 12:20:23;;;;;;;79.10;34.20;;;;;;;;;;4991510;28;20234;-58
2023/01/25 12:23:03;;;;;;;81.80;34.80;;;;;;;;;;4994255;28;20218;-57
2023/01/25 12:25:37;;;;;;;82.03;32.40;;;;;;;;;;4993114;28;20268;-58
2023/01/25 12:28:14;;;;;;;66.83;29.07;;;;;;;;;;4993595;28;20316;-58
2023/01/25 12:31:03;;;;;;;55.43;26.33;;;;;;;;;;4990810;28;20230;-58
2023/01/25 12:33:32;;;;;;;62.50;29.20;;;;;;;;;;4992330;28;20603;-57
2023/01/25 12:36:06;;;;;;;54.10;26.10;;;;;;;;;;5006895;28;20272;-57
2023/01/25 12:38:39;;;;;;;62.80;29.03;;;;;;;;;;5006047;28;20218;-57
2023/01/25 12:41:40;;;;;;;56.23;28.33;;;;;;;;;;4976329;28;20284;-57
2023/01/25 12:44:13;;;;;;;66.60;28.90;;;;;;;;;;4990481;28;20237;-57
2023/01/25 12:46:58;;;;;;;72.53;29.50;;;;;;;;;;4991586;28;20222;-58
2023/01/25 12:49:50;;;;;;;56.37;26.47;;;;;;;;;;4991772;28;20241;-54
2023/01/25 12:52:36;;;;;;;53.93;27.63;;;;;;;;;;4991221;28;20280;-58
2023/01/25 12:55:12;;;;;;;65.80;32.97;;;;;;;;;;4991165;28;20218;-58
2023/01/25 12:57:56;;;;;;;55.93;28.73;;;;;;;;;;4991425;28;20217;-57
2023/01/25 13:00:34;;;;;;;54.57;28.17;;;;;;;;;;4991752;28;20230;-57
2023/01/25 13:03:43;;;;;;;62.17;27.33;;;;;;;;;;5008714;28;20238;-58
2023/01/25 13:06:30;;;;;;;53.60;26.27;;;;;;;;;;4992520;28;20226;-56
2023/01/25 13:09:06;;;;;;;51.87;24.80;;;;;;;;;;4991287;28;20226;-58
2023/01/25 13:11:40;;;;;;;52.13;26.07;;;;;;;;;;4990989;28;20221;-57
2023/01/25 13:14:16;;;;;;;55.50;27.63;;;;;;;;;;4992345;28;20733;-56
2023/01/25 13:16:48;;;;;;;63.27;30.27;;;;;;;;;;4990615;28;20272;-56
2023/01/25 13:19:30;;;;;;;58.63;28.60;;;;;;;;;;4991980;28;20365;-57
2023/01/25 13:21:58;;;;;;;56.13;29.33;;;;;;;;;;4992904;28;20349;-57
2023/01/25 13:24:28;;;;;;;59.00;29.30;;;;;;;;;;5008923;28;20202;-58
2023/01/25 13:26:55;;;;;;;59.93;30.00;;;;;;;;;;4993572;28;20642;-57
2023/01/25 13:29:34;;;;;;;61.67;28.60;;;;;;;;;;4993822;28;20226;-55
2023/01/25 13:32:03;;;;;;;59.17;30.43;;;;;;;;;;4992504;28;20646;-56
2023/01/25 13:34:33;;;;;;;66.13;31.27;;;;;;;;;;4991369;28;20264;-57
2023/01/25 13:37:21;;;;;;;83.00;36.97;;;;;;;;;;4993661;28;20265;-58
2023/01/25 13:39:51;;;;;;;72.00;34.73;;;;;;;;;;4993029;28;20217;-57
2023/01/25 13:42:29;;;;;;;109.43;49.57;;;;;;;;;;4994834;28;20284;-56
2023/01/25 13:45:17;;;;;;;73.13;34.60;;;;;;;;;;4985618;28;20226;-59
2023/01/25 13:48:05;;;;;;;65.83;31.83;;;;;;;;;;4991717;28;20233;-58
2023/01/25 13:50:36;;;;;;;64.33;29.47;;;;;;;;;;4995348;28;20236;-58
2023/01/25 13:53:19;;;;;;;65.00;31.77;;;;;;;;;;4996228;28;20256;-58
2023/01/25 13:55:57;;;;;;;53.27;28.20;;;;;;;;;;4992169;28;20288;-59
2023/01/25 13:58:26;;;;;;;64.40;31.00;;;;;;;;;;4995622;28;20222;-59
2023/01/25 14:01:05;;;;;;;64.47;31.13;;;;;;;;;;4995681;28;20675;-60
2023/01/25 14:03:41;;;;;;;59.00;29.37;;;;;;;;;;4996037;28;20261;-56
2023/01/25 14:06:17;;;;;;;61.33;30.00;;;;;;;;;;5010967;28;20674;-59
2023/01/25 14:08:45;;;;;;;63.50;30.93;;;;;;;;;;4994907;28;20233;-59
2023/01/25 14:11:27;;;;;;;58.07;30.27;;;;;;;;;;4993738;28;20572;-59
2023/01/25 14:14:15;;;;;;;60.53;30.47;;;;;;;;;;4993941;28;20224;-58
2023/01/25 14:16:43;;;;;;;68.83;36.27;;;;;;;;;;4994100;28;20241;-59
2023/01/25 14:19:19;;;;;;;66.67;31.53;;;;;;;;;;4994986;28;20666;-59
2023/01/25 14:21:47;;;;;;;87.00;35.13;;;;;;;;;;4995834;28;20222;-60
2023/01/25 14:24:16;;;;;;;89.57;48.03;;;;;;;;;;4996096;28;20226;-62
2023/01/25 14:26:46;;;;;;;67.90;36.10;;;;;;;;;;4995873;28;20561;-61
2023/01/25 14:29:18;;;;;;;62.93;32.07;;;;;;;;;;4995538;28;20292;-60
2023/01/25 14:32:01;;;;;;;66.67;30.70;;;;;;;;;;4989946;28;20564;-58
2023/01/25 14:34:28;;;;;;;67.43;32.37;;;;;;;;;;5011489;28;20637;-59
2023/01/25 14:37:15;;;;;;;62.37;30.13;;;;;;;;;;4995143;28;20288;-60
2023/01/25 14:39:44;;;;;;;57.03;29.03;;;;;;;;;;4991255;28;20222;-58
2023/01/25 14:42:13;;;;;;;64.27;31.83;;;;;;;;;;4995173;28;20221;-59
2023/01/25 14:44:40;;;;;;;55.27;28.47;;;;;;;;;;4995444;28;20241;-60
2023/01/25 14:47:29;;;;;;;67.53;33.20;;;;;;;;;;4995477;28;20218;-59
2023/01/25 14:50:31;;;;;;;57.37;30.30;;;;;;;;;;4993943;28;20625;-57
2023/01/25 14:53:10;;;;;;;56.87;29.47;;;;;;;;;;4992952;28;20230;-59
2023/01/25 14:55:37;;;;;;;62.83;30.73;;;;;;;;;;5007225;28;20666;-59
2023/01/25 14:58:05;;;;;;;76.97;41.77;;;;;;;;;;4993499;28;20607;-52
2023/01/25 15:00:34;;;;;;;59.90;31.47;;;;;;;;;;5006889;28;20242;-59
2023/01/25 15:03:05;;;;;;;56.63;28.17;;;;;;;;;;4994252;28;20238;-58